Boone Grove, Indiana
Current Conditions -  °F | °C
As of 12:56 PM on Tuesday 21 Oct 2014 (Local Time) from KVPZ Reporting Station
Overcast Overcast  
Wind Chill: 52°   Ceiling: 3200
Heat Index: 52°   Visibility: 10mi
Dew Point: 44°   Wind: 9mph
Humidity: 74%   Direction: 350°N
Pressure: 30.14"   Gusts: NA
Location:  41.35°N, 87.13°W
Report Text: KVPZ 211756Z AUTO 35008KT 10SM FEW018 FEW025 OVC032 11/07 A3014 RMK AO2 RAB26E48 SLP207 P0000 60000 T01110067 10122 20083 51007 TSNO
Loading
Personal Weather Stations






























Interactive Weather Map
Tropical Storm Tracking
New forecast layout! Learn more

10-Day Weather Forecast

Advertisements
Track Severe Weather on mobile